Sylvan Beach, Texas
Current Conditions -  °F | °C
As of 9:50 AM on Thursday 23 Oct 2014 (Local Time) from KEFD Reporting Station
Broken Clouds Broken Clouds  
Wind Chill: 68°   Ceiling: 18000
Heat Index: 68°   Visibility: 10mi
Dew Point: 57°   Wind: 6mph
Humidity: 68%   Direction: 30°NNE
Pressure: 30.14"   Gusts: NA
Location:  29.6785°N, 95.0483°W
Report Text: KEFD 231450Z 03005KT 10SM SCT100 BKN180 20/14 A3014
Loading
Personal Weather Stations






























Interactive Weather Map
Tropical Storm Tracking
New forecast layout! Learn more

10-Day Weather Forecast

Advertisements
Track Severe Weather on mobile